sensor_id;sensor_type;location;lat;lon;timestamp;P1;durP1;ratioP1;P2;durP2;ratioP2
10465;SDS011;5280;42.600;23.556;2024-02-21T00:01:52;7.10;;;5.67;;
10465;SDS011;5280;42.600;23.556;2024-02-21T00:04:21;7.13;;;5.57;;
10465;SDS011;5280;42.600;23.556;2024-02-21T00:06:48;6.50;;;5.70;;
10465;SDS011;5280;42.600;23.556;2024-02-21T00:09:15;6.63;;;5.33;;
10465;SDS011;5280;42.600;23.556;2024-02-21T00:11:43;6.13;;;5.47;;
10465;SDS011;5280;42.600;23.556;2024-02-21T00:14:10;6.87;;;6.17;;
10465;SDS011;5280;42.600;23.556;2024-02-21T00:16:38;6.53;;;5.30;;
10465;SDS011;5280;42.600;23.556;2024-02-21T00:19:05;6.17;;;5.53;;
10465;SDS011;5280;42.600;23.556;2024-02-21T00:21:34;5.97;;;5.30;;
10465;SDS011;5280;42.600;23.556;2024-02-21T00:24:01;6.17;;;5.57;;
10465;SDS011;5280;42.600;23.556;2024-02-21T00:26:29;6.60;;;5.23;;
10465;SDS011;5280;42.600;23.556;2024-02-21T00:28:56;6.67;;;5.70;;
10465;SDS011;5280;42.600;23.556;2024-02-21T00:31:24;6.70;;;6.00;;
10465;SDS011;5280;42.600;23.556;2024-02-21T00:33:51;6.13;;;5.53;;
10465;SDS011;5280;42.600;23.556;2024-02-21T00:36:18;7.47;;;5.77;;
10465;SDS011;5280;42.600;23.556;2024-02-21T00:38:47;6.67;;;5.97;;
10465;SDS011;5280;42.600;23.556;2024-02-21T00:41:14;6.43;;;5.47;;
10465;SDS011;5280;42.600;23.556;2024-02-21T00:43:41;6.83;;;5.90;;
10465;SDS011;5280;42.600;23.556;2024-02-21T00:46:09;6.67;;;5.97;;
10465;SDS011;5280;42.600;23.556;2024-02-21T00:48:36;6.33;;;5.27;;
10465;SDS011;5280;42.600;23.556;2024-02-21T00:51:04;7.13;;;6.40;;
10465;SDS011;5280;42.600;23.556;2024-02-21T00:53:31;6.47;;;5.43;;
10465;SDS011;5280;42.600;23.556;2024-02-21T00:56:00;6.57;;;5.40;;
10465;SDS011;5280;42.600;23.556;2024-02-21T00:58:28;7.17;;;6.47;;
10465;SDS011;5280;42.600;23.556;2024-02-21T01:00:55;6.70;;;5.90;;
10465;SDS011;5280;42.600;23.556;2024-02-21T01:03:25;7.03;;;6.00;;
10465;SDS011;5280;42.600;23.556;2024-02-21T01:05:56;5.70;;;5.10;;
10465;SDS011;5280;42.600;23.556;2024-02-21T01:08:23;6.73;;;5.93;;
10465;SDS011;5280;42.600;23.556;2024-02-21T01:10:50;7.37;;;5.70;;
10465;SDS011;5280;42.600;23.556;2024-02-21T01:13:19;6.47;;;5.87;;
10465;SDS011;5280;42.600;23.556;2024-02-21T01:15:47;6.03;;;5.43;;
10465;SDS011;5280;42.600;23.556;2024-02-21T01:18:14;7.07;;;5.90;;
10465;SDS011;5280;42.600;23.556;2024-02-21T01:20:41;6.60;;;5.73;;
10465;SDS011;5280;42.600;23.556;2024-02-21T01:23:09;7.63;;;6.17;;
10465;SDS011;5280;42.600;23.556;2024-02-21T01:25:36;6.10;;;5.40;;
10465;SDS011;5280;42.600;23.556;2024-02-21T01:28:03;7.17;;;5.80;;
10465;SDS011;5280;42.600;23.556;2024-02-21T01:30:32;6.53;;;5.87;;
10465;SDS011;5280;42.600;23.556;2024-02-21T01:32:59;6.43;;;5.60;;
10465;SDS011;5280;42.600;23.556;2024-02-21T01:35:27;6.70;;;6.00;;
10465;SDS011;5280;42.600;23.556;2024-02-21T01:37:54;6.07;;;5.47;;
10465;SDS011;5280;42.600;23.556;2024-02-21T01:40:21;7.93;;;5.87;;
10465;SDS011;5280;42.600;23.556;2024-02-21T01:42:48;7.03;;;5.70;;
10465;SDS011;5280;42.600;23.556;2024-02-21T01:45:15;6.13;;;5.53;;
10465;SDS011;5280;42.600;23.556;2024-02-21T01:47:44;8.07;;;5.83;;
10465;SDS011;5280;42.600;23.556;2024-02-21T01:50:12;6.90;;;6.00;;
10465;SDS011;5280;42.600;23.556;2024-02-21T01:52:41;6.03;;;5.40;;
10465;SDS011;5280;42.600;23.556;2024-02-21T01:55:09;6.80;;;6.10;;
10465;SDS011;5280;42.600;23.556;2024-02-21T01:57:38;6.00;;;5.10;;
10465;SDS011;5280;42.600;23.556;2024-02-21T02:00:06;5.37;;;4.83;;
10465;SDS011;5280;42.600;23.556;2024-02-21T02:02:36;6.03;;;5.43;;
10465;SDS011;5280;42.600;23.556;2024-02-21T02:05:06;6.07;;;5.50;;
10465;SDS011;5280;42.600;23.556;2024-02-21T02:07:34;5.53;;;5.03;;
10465;SDS011;5280;42.600;23.556;2024-02-21T02:10:02;5.33;;;4.83;;
10465;SDS011;5280;42.600;23.556;2024-02-21T02:12:30;4.87;;;4.47;;
10465;SDS011;5280;42.600;23.556;2024-02-21T02:14:57;7.70;;;5.73;;
10465;SDS011;5280;42.600;23.556;2024-02-21T02:17:25;5.53;;;5.00;;
10465;SDS011;5280;42.600;23.556;2024-02-21T02:19:52;5.87;;;5.37;;
10465;SDS011;5280;42.600;23.556;2024-02-21T02:22:22;5.87;;;5.23;;
10465;SDS011;5280;42.600;23.556;2024-02-21T02:24:56;4.97;;;4.43;;
10465;SDS011;5280;42.600;23.556;2024-02-21T02:27:23;5.30;;;4.77;;
10465;SDS011;5280;42.600;23.556;2024-02-21T02:29:50;6.60;;;4.77;;
10465;SDS011;5280;42.600;23.556;2024-02-21T02:35:20;5.03;;;4.53;;
10465;SDS011;5280;42.600;23.556;2024-02-21T02:41:10;5.77;;;4.50;;
10465;SDS011;5280;42.600;23.556;2024-02-21T02:43:37;5.37;;;4.50;;
10465;SDS011;5280;42.600;23.556;2024-02-21T02:46:04;4.80;;;4.40;;
10465;SDS011;5280;42.600;23.556;2024-02-21T02:48:32;6.03;;;4.77;;
10465;SDS011;5280;42.600;23.556;2024-02-21T02:50:59;5.53;;;4.90;;
10465;SDS011;5280;42.600;23.556;2024-02-21T02:53:26;5.77;;;5.10;;
10465;SDS011;5280;42.600;23.556;2024-02-21T02:55:54;5.60;;;4.97;;
10465;SDS011;5280;42.600;23.556;2024-02-21T02:58:22;5.50;;;5.00;;
10465;SDS011;5280;42.600;23.556;2024-02-21T03:00:50;6.23;;;5.40;;
10465;SDS011;5280;42.600;23.556;2024-02-21T03:03:17;6.40;;;5.80;;
10465;SDS011;5280;42.600;23.556;2024-02-21T03:05:44;6.03;;;5.43;;
10465;SDS011;5280;42.600;23.556;2024-02-21T03:08:12;5.87;;;5.27;;
10465;SDS011;5280;42.600;23.556;2024-02-21T03:10:40;6.50;;;5.83;;
10465;SDS011;5280;42.600;23.556;2024-02-21T03:13:07;6.97;;;5.47;;
10465;SDS011;5280;42.600;23.556;2024-02-21T03:15:36;5.50;;;5.00;;
10465;SDS011;5280;42.600;23.556;2024-02-21T03:18:03;5.50;;;5.00;;
10465;SDS011;5280;42.600;23.556;2024-02-21T03:20:31;6.63;;;5.03;;
10465;SDS011;5280;42.600;23.556;2024-02-21T03:22:58;5.87;;;5.17;;
10465;SDS011;5280;42.600;23.556;2024-02-21T03:25:25;6.33;;;5.73;;
10465;SDS011;5280;42.600;23.556;2024-02-21T03:27:53;7.23;;;6.53;;
10465;SDS011;5280;42.600;23.556;2024-02-21T03:30:20;7.23;;;6.20;;
10465;SDS011;5280;42.600;23.556;2024-02-21T03:32:49;8.27;;;6.30;;
10465;SDS011;5280;42.600;23.556;2024-02-21T03:35:16;7.80;;;6.33;;
10465;SDS011;5280;42.600;23.556;2024-02-21T03:37:44;7.63;;;6.80;;
10465;SDS011;5280;42.600;23.556;2024-02-21T03:40:12;7.60;;;6.67;;
10465;SDS011;5280;42.600;23.556;2024-02-21T03:42:40;8.33;;;6.60;;
10465;SDS011;5280;42.600;23.556;2024-02-21T03:45:08;7.20;;;6.50;;
10465;SDS011;5280;42.600;23.556;2024-02-21T03:47:35;8.60;;;6.93;;
10465;SDS011;5280;42.600;23.556;2024-02-21T03:50:05;8.23;;;7.33;;
10465;SDS011;5280;42.600;23.556;2024-02-21T03:52:33;8.57;;;7.23;;
10465;SDS011;5280;42.600;23.556;2024-02-21T03:55:00;8.30;;;7.30;;
10465;SDS011;5280;42.600;23.556;2024-02-21T03:57:28;8.93;;;7.63;;
10465;SDS011;5280;42.600;23.556;2024-02-21T03:59:55;8.70;;;7.37;;
10465;SDS011;5280;42.600;23.556;2024-02-21T04:02:22;9.00;;;8.10;;
10465;SDS011;5280;42.600;23.556;2024-02-21T04:04:49;9.43;;;8.03;;
10465;SDS011;5280;42.600;23.556;2024-02-21T04:07:18;9.57;;;8.07;;
10465;SDS011;5280;42.600;23.556;2024-02-21T04:09:45;8.80;;;7.90;;
10465;SDS011;5280;42.600;23.556;2024-02-21T04:12:12;9.50;;;8.30;;
10465;SDS011;5280;42.600;23.556;2024-02-21T04:14:40;10.50;;;8.90;;
10465;SDS011;5280;42.600;23.556;2024-02-21T04:17:07;11.43;;;8.60;;
10465;SDS011;5280;42.600;23.556;2024-02-21T04:19:34;9.00;;;7.97;;
10465;SDS011;5280;42.600;23.556;2024-02-21T04:22:01;8.73;;;7.77;;
10465;SDS011;5280;42.600;23.556;2024-02-21T04:24:30;8.30;;;7.43;;
10465;SDS011;5280;42.600;23.556;2024-02-21T04:26:57;9.60;;;8.37;;
10465;SDS011;5280;42.600;23.556;2024-02-21T04:29:24;10.33;;;8.37;;
10465;SDS011;5280;42.600;23.556;2024-02-21T04:31:53;8.80;;;7.90;;
10465;SDS011;5280;42.600;23.556;2024-02-21T04:34:20;9.63;;;7.97;;
10465;SDS011;5280;42.600;23.556;2024-02-21T04:36:48;10.60;;;8.37;;
10465;SDS011;5280;42.600;23.556;2024-02-21T04:39:15;8.67;;;7.53;;
10465;SDS011;5280;42.600;23.556;2024-02-21T04:41:44;8.83;;;7.57;;
10465;SDS011;5280;42.600;23.556;2024-02-21T04:44:11;9.37;;;8.37;;
10465;SDS011;5280;42.600;23.556;2024-02-21T04:46:41;9.97;;;8.83;;
10465;SDS011;5280;42.600;23.556;2024-02-21T04:49:09;10.97;;;8.20;;
10465;SDS011;5280;42.600;23.556;2024-02-21T04:51:36;9.70;;;8.70;;
10465;SDS011;5280;42.600;23.556;2024-02-21T04:54:03;9.87;;;8.17;;
10465;SDS011;5280;42.600;23.556;2024-02-21T04:56:31;12.53;;;9.43;;
10465;SDS011;5280;42.600;23.556;2024-02-21T04:58:59;8.60;;;7.70;;
10465;SDS011;5280;42.600;23.556;2024-02-21T05:01:27;9.00;;;8.07;;
10465;SDS011;5280;42.600;23.556;2024-02-21T05:03:55;9.50;;;7.87;;
10465;SDS011;5280;42.600;23.556;2024-02-21T05:06:22;9.93;;;8.33;;
10465;SDS011;5280;42.600;23.556;2024-02-21T05:08:49;10.03;;;8.50;;
10465;SDS011;5280;42.600;23.556;2024-02-21T05:11:16;10.33;;;8.60;;
10465;SDS011;5280;42.600;23.556;2024-02-21T05:13:43;11.67;;;9.47;;
10465;SDS011;5280;42.600;23.556;2024-02-21T05:16:12;11.90;;;9.50;;
10465;SDS011;5280;42.600;23.556;2024-02-21T05:18:41;10.00;;;8.80;;
10465;SDS011;5280;42.600;23.556;2024-02-21T05:21:09;11.53;;;10.13;;
10465;SDS011;5280;42.600;23.556;2024-02-21T05:23:36;12.10;;;9.47;;
10465;SDS011;5280;42.600;23.556;2024-02-21T05:26:04;13.00;;;9.83;;
10465;SDS011;5280;42.600;23.556;2024-02-21T05:28:31;11.63;;;9.60;;
10465;SDS011;5280;42.600;23.556;2024-02-21T05:30:59;12.37;;;10.00;;
10465;SDS011;5280;42.600;23.556;2024-02-21T05:33:27;13.93;;;11.07;;
10465;SDS011;5280;42.600;23.556;2024-02-21T05:35:55;13.10;;;10.50;;
10465;SDS011;5280;42.600;23.556;2024-02-21T05:38:22;13.80;;;10.37;;
10465;SDS011;5280;42.600;23.556;2024-02-21T05:40:50;12.47;;;11.17;;
10465;SDS011;5280;42.600;23.556;2024-02-21T05:43:17;13.40;;;11.03;;
10465;SDS011;5280;42.600;23.556;2024-02-21T05:45:45;13.40;;;10.77;;
10465;SDS011;5280;42.600;23.556;2024-02-21T05:48:12;11.97;;;10.30;;
10465;SDS011;5280;42.600;23.556;2024-02-21T05:50:40;12.03;;;9.90;;
10465;SDS011;5280;42.600;23.556;2024-02-21T05:53:08;11.80;;;9.97;;
10465;SDS011;5280;42.600;23.556;2024-02-21T05:55:38;12.37;;;10.57;;
10465;SDS011;5280;42.600;23.556;2024-02-21T05:58:06;15.37;;;12.20;;
10465;SDS011;5280;42.600;23.556;2024-02-21T06:00:35;15.90;;;12.33;;
10465;SDS011;5280;42.600;23.556;2024-02-21T06:03:07;16.37;;;11.97;;
10465;SDS011;5280;42.600;23.556;2024-02-21T06:05:37;14.93;;;11.60;;
10465;SDS011;5280;42.600;23.556;2024-02-21T06:08:06;14.40;;;11.33;;
10465;SDS011;5280;42.600;23.556;2024-02-21T06:10:34;13.47;;;11.43;;
10465;SDS011;5280;42.600;23.556;2024-02-21T06:13:01;14.03;;;12.23;;
10465;SDS011;5280;42.600;23.556;2024-02-21T06:15:28;14.87;;;11.50;;
10465;SDS011;5280;42.600;23.556;2024-02-21T06:17:55;13.37;;;11.67;;
10465;SDS011;5280;42.600;23.556;2024-02-21T06:20:23;15.10;;;12.40;;
10465;SDS011;5280;42.600;23.556;2024-02-21T06:22:50;14.40;;;12.10;;
10465;SDS011;5280;42.600;23.556;2024-02-21T06:25:21;15.43;;;12.40;;
10465;SDS011;5280;42.600;23.556;2024-02-21T06:27:49;14.93;;;12.50;;
10465;SDS011;5280;42.600;23.556;2024-02-21T06:30:20;15.50;;;12.87;;
10465;SDS011;5280;42.600;23.556;2024-02-21T06:32:47;15.57;;;12.47;;
10465;SDS011;5280;42.600;23.556;2024-02-21T06:35:14;15.03;;;11.97;;
10465;SDS011;5280;42.600;23.556;2024-02-21T06:37:42;14.73;;;11.63;;
10465;SDS011;5280;42.600;23.556;2024-02-21T06:40:10;16.73;;;13.27;;
10465;SDS011;5280;42.600;23.556;2024-02-21T06:42:41;15.47;;;12.57;;
10465;SDS011;5280;42.600;23.556;2024-02-21T06:45:12;16.47;;;12.07;;
10465;SDS011;5280;42.600;23.556;2024-02-21T06:47:39;15.73;;;12.80;;
10465;SDS011;5280;42.600;23.556;2024-02-21T06:50:07;15.47;;;12.43;;
10465;SDS011;5280;42.600;23.556;2024-02-21T06:52:35;15.40;;;13.23;;
10465;SDS011;5280;42.600;23.556;2024-02-21T06:55:03;16.60;;;13.20;;
10465;SDS011;5280;42.600;23.556;2024-02-21T06:57:31;16.37;;;13.17;;
10465;SDS011;5280;42.600;23.556;2024-02-21T07:00:00;15.80;;;12.30;;
10465;SDS011;5280;42.600;23.556;2024-02-21T07:02:27;15.80;;;11.97;;
10465;SDS011;5280;42.600;23.556;2024-02-21T07:04:54;15.13;;;12.13;;
10465;SDS011;5280;42.600;23.556;2024-02-21T07:07:21;15.27;;;12.33;;
10465;SDS011;5280;42.600;23.556;2024-02-21T07:09:49;14.27;;;11.93;;
10465;SDS011;5280;42.600;23.556;2024-02-21T07:12:16;14.57;;;12.57;;
10465;SDS011;5280;42.600;23.556;2024-02-21T07:14:44;15.83;;;12.37;;
10465;SDS011;5280;42.600;23.556;2024-02-21T07:17:13;15.47;;;12.43;;
10465;SDS011;5280;42.600;23.556;2024-02-21T07:19:40;17.10;;;13.37;;
10465;SDS011;5280;42.600;23.556;2024-02-21T07:22:07;16.53;;;13.00;;
10465;SDS011;5280;42.600;23.556;2024-02-21T07:24:34;17.33;;;12.73;;
10465;SDS011;5280;42.600;23.556;2024-02-21T07:27:03;15.63;;;12.67;;
10465;SDS011;5280;42.600;23.556;2024-02-21T07:29:30;16.63;;;12.43;;
10465;SDS011;5280;42.600;23.556;2024-02-21T07:31:57;17.47;;;13.77;;
10465;SDS011;5280;42.600;23.556;2024-02-21T07:34:25;15.50;;;13.03;;
10465;SDS011;5280;42.600;23.556;2024-02-21T07:36:53;15.57;;;13.17;;
10465;SDS011;5280;42.600;23.556;2024-02-21T07:39:20;16.50;;;13.70;;
10465;SDS011;5280;42.600;23.556;2024-02-21T07:41:47;15.67;;;13.00;;
10465;SDS011;5280;42.600;23.556;2024-02-21T07:44:20;17.30;;;13.47;;
10465;SDS011;5280;42.600;23.556;2024-02-21T07:46:47;16.23;;;13.30;;
10465;SDS011;5280;42.600;23.556;2024-02-21T07:49:14;15.60;;;13.10;;
10465;SDS011;5280;42.600;23.556;2024-02-21T07:51:43;18.10;;;14.43;;
10465;SDS011;5280;42.600;23.556;2024-02-21T07:54:11;16.17;;;13.93;;
10465;SDS011;5280;42.600;23.556;2024-02-21T07:56:39;15.37;;;12.77;;
10465;SDS011;5280;42.600;23.556;2024-02-21T07:59:06;16.80;;;13.73;;
10465;SDS011;5280;42.600;23.556;2024-02-21T08:01:34;14.67;;;12.03;;
10465;SDS011;5280;42.600;23.556;2024-02-21T08:04:01;14.87;;;12.97;;
10465;SDS011;5280;42.600;23.556;2024-02-21T08:06:29;15.07;;;13.30;;
10465;SDS011;5280;42.600;23.556;2024-02-21T08:08:58;16.03;;;13.60;;
10465;SDS011;5280;42.600;23.556;2024-02-21T08:11:25;16.87;;;13.57;;
10465;SDS011;5280;42.600;23.556;2024-02-21T08:13:52;17.40;;;13.83;;
10465;SDS011;5280;42.600;23.556;2024-02-21T08:16:20;17.97;;;15.37;;
10465;SDS011;5280;42.600;23.556;2024-02-21T08:18:47;16.97;;;14.57;;
10465;SDS011;5280;42.600;23.556;2024-02-21T08:21:15;17.53;;;14.07;;
10465;SDS011;5280;42.600;23.556;2024-02-21T08:23:42;15.93;;;13.57;;
10465;SDS011;5280;42.600;23.556;2024-02-21T08:26:11;16.40;;;14.47;;
10465;SDS011;5280;42.600;23.556;2024-02-21T08:28:38;18.23;;;14.63;;
10465;SDS011;5280;42.600;23.556;2024-02-21T08:31:05;17.57;;;14.77;;
10465;SDS011;5280;42.600;23.556;2024-02-21T08:33:32;18.43;;;14.87;;
10465;SDS011;5280;42.600;23.556;2024-02-21T08:35:59;20.20;;;16.33;;
10465;SDS011;5280;42.600;23.556;2024-02-21T08:38:26;18.03;;;14.73;;
10465;SDS011;5280;42.600;23.556;2024-02-21T08:40:54;18.17;;;15.40;;
10465;SDS011;5280;42.600;23.556;2024-02-21T08:43:23;24.40;;;17.53;;
10465;SDS011;5280;42.600;23.556;2024-02-21T08:45:50;19.23;;;16.23;;
10465;SDS011;5280;42.600;23.556;2024-02-21T08:48:17;20.27;;;15.73;;
10465;SDS011;5280;42.600;23.556;2024-02-21T08:50:44;17.63;;;15.27;;
10465;SDS011;5280;42.600;23.556;2024-02-21T08:53:11;19.37;;;15.87;;
10465;SDS011;5280;42.600;23.556;2024-02-21T08:55:39;19.50;;;15.83;;
10465;SDS011;5280;42.600;23.556;2024-02-21T08:58:06;21.40;;;15.70;;
10465;SDS011;5280;42.600;23.556;2024-02-21T09:00:35;19.43;;;16.10;;
10465;SDS011;5280;42.600;23.556;2024-02-21T09:03:04;21.43;;;16.90;;
10465;SDS011;5280;42.600;23.556;2024-02-21T09:05:32;20.50;;;15.27;;
10465;SDS011;5280;42.600;23.556;2024-02-21T09:08:00;21.83;;;17.23;;
10465;SDS011;5280;42.600;23.556;2024-02-21T09:10:27;26.80;;;20.97;;
10465;SDS011;5280;42.600;23.556;2024-02-21T09:12:55;22.87;;;18.60;;
10465;SDS011;5280;42.600;23.556;2024-02-21T09:15:22;18.17;;;15.97;;
10465;SDS011;5280;42.600;23.556;2024-02-21T09:17:50;18.23;;;16.00;;
10465;SDS011;5280;42.600;23.556;2024-02-21T09:20:18;24.53;;;19.27;;
10465;SDS011;5280;42.600;23.556;2024-02-21T09:22:45;26.97;;;21.53;;
10465;SDS011;5280;42.600;23.556;2024-02-21T09:25:12;19.63;;;16.97;;
10465;SDS011;5280;42.600;23.556;2024-02-21T09:27:40;18.77;;;15.77;;
10465;SDS011;5280;42.600;23.556;2024-02-21T09:30:07;21.33;;;17.10;;
10465;SDS011;5280;42.600;23.556;2024-02-21T09:32:34;21.60;;;16.63;;
10465;SDS011;5280;42.600;23.556;2024-02-21T09:35:03;18.63;;;15.00;;
10465;SDS011;5280;42.600;23.556;2024-02-21T09:37:30;15.83;;;13.77;;
10465;SDS011;5280;42.600;23.556;2024-02-21T09:39:58;16.10;;;13.80;;
10465;SDS011;5280;42.600;23.556;2024-02-21T09:42:27;18.97;;;15.47;;
10465;SDS011;5280;42.600;23.556;2024-02-21T09:45:03;17.73;;;14.37;;
10465;SDS011;5280;42.600;23.556;2024-02-21T09:47:38;17.40;;;14.47;;
10465;SDS011;5280;42.600;23.556;2024-02-21T09:50:12;15.17;;;13.57;;
10465;SDS011;5280;42.600;23.556;2024-02-21T09:52:41;15.37;;;13.10;;
10465;SDS011;5280;42.600;23.556;2024-02-21T09:55:09;15.77;;;13.30;;
10465;SDS011;5280;42.600;23.556;2024-02-21T09:57:39;18.53;;;14.13;;
10465;SDS011;5280;42.600;23.556;2024-02-21T10:00:07;14.80;;;12.97;;
10465;SDS011;5280;42.600;23.556;2024-02-21T10:02:34;14.80;;;12.90;;
10465;SDS011;5280;42.600;23.556;2024-02-21T10:05:02;14.10;;;12.33;;
10465;SDS011;5280;42.600;23.556;2024-02-21T10:07:31;15.17;;;13.20;;
10465;SDS011;5280;42.600;23.556;2024-02-21T10:10:02;13.93;;;11.77;;
10465;SDS011;5280;42.600;23.556;2024-02-21T10:12:29;14.27;;;12.73;;
10465;SDS011;5280;42.600;23.556;2024-02-21T10:15:00;14.57;;;12.53;;
10465;SDS011;5280;42.600;23.556;2024-02-21T10:17:27;16.13;;;12.10;;
10465;SDS011;5280;42.600;23.556;2024-02-21T10:19:54;18.73;;;16.17;;
10465;SDS011;5280;42.600;23.556;2024-02-21T10:22:21;26.17;;;19.83;;
10465;SDS011;5280;42.600;23.556;2024-02-21T10:24:52;13.70;;;11.90;;
10465;SDS011;5280;42.600;23.556;2024-02-21T10:27:20;11.90;;;10.60;;
10465;SDS011;5280;42.600;23.556;2024-02-21T10:29:50;12.07;;;10.53;;
10465;SDS011;5280;42.600;23.556;2024-02-21T10:32:17;18.87;;;14.07;;
10465;SDS011;5280;42.600;23.556;2024-02-21T10:34:44;13.40;;;12.00;;
10465;SDS011;5280;42.600;23.556;2024-02-21T10:37:16;12.23;;;9.93;;
10465;SDS011;5280;42.600;23.556;2024-02-21T10:39:43;9.53;;;8.53;;
10465;SDS011;5280;42.600;23.556;2024-02-21T10:42:12;10.57;;;9.50;;
10465;SDS011;5280;42.600;23.556;2024-02-21T10:44:41;12.37;;;11.07;;
10465;SDS011;5280;42.600;23.556;2024-02-21T10:47:10;11.90;;;10.03;;
10465;SDS011;5280;42.600;23.556;2024-02-21T10:49:39;12.10;;;10.17;;
10465;SDS011;5280;42.600;23.556;2024-02-21T10:52:13;12.77;;;11.47;;
10465;SDS011;5280;42.600;23.556;2024-02-21T10:54:52;14.57;;;12.20;;
10465;SDS011;5280;42.600;23.556;2024-02-21T10:57:24;15.07;;;10.97;;
10465;SDS011;5280;42.600;23.556;2024-02-21T10:59:52;11.27;;;9.97;;
10465;SDS011;5280;42.600;23.556;2024-02-21T11:02:21;10.33;;;9.20;;
10465;SDS011;5280;42.600;23.556;2024-02-21T11:04:48;11.20;;;10.00;;
10465;SDS011;5280;42.600;23.556;2024-02-21T11:07:18;11.87;;;10.20;;
10465;SDS011;5280;42.600;23.556;2024-02-21T11:09:50;9.20;;;8.30;;
10465;SDS011;5280;42.600;23.556;2024-02-21T11:12:20;12.17;;;9.47;;
10465;SDS011;5280;42.600;23.556;2024-02-21T11:14:51;10.83;;;9.23;;
10465;SDS011;5280;42.600;23.556;2024-02-21T11:17:19;10.13;;;9.13;;
10465;SDS011;5280;42.600;23.556;2024-02-21T11:19:51;9.83;;;8.83;;
10465;SDS011;5280;42.600;23.556;2024-02-21T11:22:18;10.57;;;9.50;;
10465;SDS011;5280;42.600;23.556;2024-02-21T11:24:49;12.13;;;10.80;;
10465;SDS011;5280;42.600;23.556;2024-02-21T11:27:18;11.07;;;9.63;;
10465;SDS011;5280;42.600;23.556;2024-02-21T11:29:46;11.13;;;10.03;;
10465;SDS011;5280;42.600;23.556;2024-02-21T11:32:16;13.70;;;11.80;;
10465;SDS011;5280;42.600;23.556;2024-02-21T11:34:53;11.20;;;10.10;;
10465;SDS011;5280;42.600;23.556;2024-02-21T11:37:26;9.23;;;8.33;;
10465;SDS011;5280;42.600;23.556;2024-02-21T11:39:54;8.83;;;8.00;;
10465;SDS011;5280;42.600;23.556;2024-02-21T11:42:22;8.97;;;7.73;;
10465;SDS011;5280;42.600;23.556;2024-02-21T11:44:51;8.37;;;7.50;;
10465;SDS011;5280;42.600;23.556;2024-02-21T11:47:19;8.23;;;7.33;;
10465;SDS011;5280;42.600;23.556;2024-02-21T11:49:47;8.27;;;7.47;;
10465;SDS011;5280;42.600;23.556;2024-02-21T11:52:19;10.77;;;7.43;;
10465;SDS011;5280;42.600;23.556;2024-02-21T11:54:50;7.30;;;6.60;;
10465;SDS011;5280;42.600;23.556;2024-02-21T11:57:17;9.93;;;7.20;;
10465;SDS011;5280;42.600;23.556;2024-02-21T11:59:45;7.90;;;7.10;;
10465;SDS011;5280;42.600;23.556;2024-02-21T12:02:12;8.07;;;7.27;;
10465;SDS011;5280;42.600;23.556;2024-02-21T12:04:41;8.10;;;7.30;;
10465;SDS011;5280;42.600;23.556;2024-02-21T12:07:08;8.87;;;7.97;;
10465;SDS011;5280;42.600;23.556;2024-02-21T12:09:36;8.47;;;7.67;;
10465;SDS011;5280;42.600;23.556;2024-02-21T12:12:03;12.17;;;9.77;;
10465;SDS011;5280;42.600;23.556;2024-02-21T12:14:32;9.33;;;8.43;;
10465;SDS011;5280;42.600;23.556;2024-02-21T12:17:00;9.60;;;6.97;;
10465;SDS011;5280;42.600;23.556;2024-02-21T12:19:29;7.00;;;6.30;;
10465;SDS011;5280;42.600;23.556;2024-02-21T12:22:00;8.23;;;7.43;;
10465;SDS011;5280;42.600;23.556;2024-02-21T12:24:30;8.43;;;7.53;;
10465;SDS011;5280;42.600;23.556;2024-02-21T12:26:58;9.10;;;7.80;;
10465;SDS011;5280;42.600;23.556;2024-02-21T12:29:25;7.50;;;6.80;;
10465;SDS011;5280;42.600;23.556;2024-02-21T12:31:52;7.00;;;6.27;;
10465;SDS011;5280;42.600;23.556;2024-02-21T12:34:20;6.57;;;5.97;;
10465;SDS011;5280;42.600;23.556;2024-02-21T12:36:49;5.50;;;5.00;;
10465;SDS011;5280;42.600;23.556;2024-02-21T12:39:18;5.27;;;4.77;;
10465;SDS011;5280;42.600;23.556;2024-02-21T12:41:46;4.67;;;4.27;;
10465;SDS011;5280;42.600;23.556;2024-02-21T12:44:13;4.63;;;4.23;;
10465;SDS011;5280;42.600;23.556;2024-02-21T12:46:42;6.13;;;5.20;;
10465;SDS011;5280;42.600;23.556;2024-02-21T12:49:09;5.00;;;4.50;;
10465;SDS011;5280;42.600;23.556;2024-02-21T12:51:37;4.87;;;4.47;;
10465;SDS011;5280;42.600;23.556;2024-02-21T12:54:04;4.77;;;3.90;;
10465;SDS011;5280;42.600;23.556;2024-02-21T12:56:33;5.50;;;5.00;;
10465;SDS011;5280;42.600;23.556;2024-02-21T12:59:00;5.57;;;4.27;;
10465;SDS011;5280;42.600;23.556;2024-02-21T13:01:27;4.37;;;3.97;;
10465;SDS011;5280;42.600;23.556;2024-02-21T13:03:54;4.63;;;4.20;;
10465;SDS011;5280;42.600;23.556;2024-02-21T13:06:22;6.70;;;3.80;;
10465;SDS011;5280;42.600;23.556;2024-02-21T13:08:50;5.40;;;4.83;;
10465;SDS011;5280;42.600;23.556;2024-02-21T13:11:18;6.37;;;3.93;;
10465;SDS011;5280;42.600;23.556;2024-02-21T13:13:46;6.30;;;4.60;;
10465;SDS011;5280;42.600;23.556;2024-02-21T13:16:13;5.40;;;4.90;;
10465;SDS011;5280;42.600;23.556;2024-02-21T13:18:40;5.27;;;4.77;;
10465;SDS011;5280;42.600;23.556;2024-02-21T13:21:08;4.70;;;4.33;;
10465;SDS011;5280;42.600;23.556;2024-02-21T13:23:35;6.23;;;4.77;;
10465;SDS011;5280;42.600;23.556;2024-02-21T13:26:02;4.83;;;4.33;;
10465;SDS011;5280;42.600;23.556;2024-02-21T13:28:29;6.17;;;5.27;;
10465;SDS011;5280;42.600;23.556;2024-02-21T13:30:58;6.00;;;4.83;;
10465;SDS011;5280;42.600;23.556;2024-02-21T13:33:25;4.87;;;4.47;;
10465;SDS011;5280;42.600;23.556;2024-02-21T13:35:55;7.13;;;6.37;;
10465;SDS011;5280;42.600;23.556;2024-02-21T13:38:23;7.10;;;6.10;;
10465;SDS011;5280;42.600;23.556;2024-02-21T13:40:52;7.67;;;6.87;;
10465;SDS011;5280;42.600;23.556;2024-02-21T13:43:19;7.20;;;6.43;;
10465;SDS011;5280;42.600;23.556;2024-02-21T13:45:56;7.40;;;6.70;;
10465;SDS011;5280;42.600;23.556;2024-02-21T13:48:25;8.07;;;6.97;;
10465;SDS011;5280;42.600;23.556;2024-02-21T13:50:54;7.40;;;6.63;;
10465;SDS011;5280;42.600;23.556;2024-02-21T13:53:21;6.90;;;5.63;;
10465;SDS011;5280;42.600;23.556;2024-02-21T13:55:49;7.70;;;5.93;;
10465;SDS011;5280;42.600;23.556;2024-02-21T13:58:16;5.90;;;5.23;;
10465;SDS011;5280;42.600;23.556;2024-02-21T14:00:44;6.73;;;5.73;;
10465;SDS011;5280;42.600;23.556;2024-02-21T14:03:12;5.90;;;5.30;;
10465;SDS011;5280;42.600;23.556;2024-02-21T14:05:39;5.47;;;4.97;;
10465;SDS011;5280;42.600;23.556;2024-02-21T14:08:06;9.70;;;6.83;;
10465;SDS011;5280;42.600;23.556;2024-02-21T14:10:34;8.40;;;7.60;;
10465;SDS011;5280;42.600;23.556;2024-02-21T14:13:02;8.70;;;7.87;;
10465;SDS011;5280;42.600;23.556;2024-02-21T14:15:29;8.30;;;7.50;;
10465;SDS011;5280;42.600;23.556;2024-02-21T14:17:56;8.63;;;6.57;;
10465;SDS011;5280;42.600;23.556;2024-02-21T14:20:25;8.63;;;7.60;;
10465;SDS011;5280;42.600;23.556;2024-02-21T14:22:52;11.60;;;9.80;;
10465;SDS011;5280;42.600;23.556;2024-02-21T14:25:19;13.83;;;10.30;;
10465;SDS011;5280;42.600;23.556;2024-02-21T14:27:46;12.03;;;10.43;;
10465;SDS011;5280;42.600;23.556;2024-02-21T14:30:13;8.77;;;7.87;;
10465;SDS011;5280;42.600;23.556;2024-02-21T14:32:40;7.53;;;6.73;;
10465;SDS011;5280;42.600;23.556;2024-02-21T14:35:11;10.07;;;8.33;;
10465;SDS011;5280;42.600;23.556;2024-02-21T14:37:40;7.63;;;6.83;;
10465;SDS011;5280;42.600;23.556;2024-02-21T14:40:07;9.83;;;8.20;;
10465;SDS011;5280;42.600;23.556;2024-02-21T14:42:35;11.87;;;9.17;;
10465;SDS011;5280;42.600;23.556;2024-02-21T14:45:02;10.53;;;7.67;;
10465;SDS011;5280;42.600;23.556;2024-02-21T14:47:29;9.97;;;8.97;;